sensor_id;sensor_type;location;lat;lon;timestamp;temperature;humidity
59651;DHT22;45954;49.768;8.636;2023-04-16T00:00:49;10.50;99.90
59651;DHT22;45954;49.768;8.636;2023-04-16T00:03:15;10.40;99.90
59651;DHT22;45954;49.768;8.636;2023-04-16T00:05:40;10.50;99.90
59651;DHT22;45954;49.768;8.636;2023-04-16T00:08:06;10.40;99.90
59651;DHT22;45954;49.768;8.636;2023-04-16T00:10:35;10.50;99.90
59651;DHT22;45954;49.768;8.636;2023-04-16T00:13:01;10.50;99.90
59651;DHT22;45954;49.768;8.636;2023-04-16T00:15:27;10.50;99.90
59651;DHT22;45954;49.768;8.636;2023-04-16T00:17:53;10.50;99.90
59651;DHT22;45954;49.768;8.636;2023-04-16T00:20:19;10.50;99.90
59651;DHT22;45954;49.768;8.636;2023-04-16T00:22:45;10.50;99.90
59651;DHT22;45954;49.768;8.636;2023-04-16T00:25:12;10.50;99.90
59651;DHT22;45954;49.768;8.636;2023-04-16T00:27:38;10.50;99.90
59651;DHT22;45954;49.768;8.636;2023-04-16T00:30:05;10.50;99.90
59651;DHT22;45954;49.768;8.636;2023-04-16T00:32:32;10.40;99.90
59651;DHT22;45954;49.768;8.636;2023-04-16T00:34:57;10.40;99.90
59651;DHT22;45954;49.768;8.636;2023-04-16T00:37:23;10.20;99.90
59651;DHT22;45954;49.768;8.636;2023-04-16T00:39:50;10.10;99.90
59651;DHT22;45954;49.768;8.636;2023-04-16T00:42:15;10.20;99.90
59651;DHT22;45954;49.768;8.636;2023-04-16T00:44:41;10.30;99.90
59651;DHT22;45954;49.768;8.636;2023-04-16T00:47:07;10.40;99.90
59651;DHT22;45954;49.768;8.636;2023-04-16T00:49:35;10.50;99.90
59651;DHT22;45954;49.768;8.636;2023-04-16T00:52:01;10.50;99.90
59651;DHT22;45954;49.768;8.636;2023-04-16T00:54:28;10.50;99.90
59651;DHT22;45954;49.768;8.636;2023-04-16T00:56:55;10.50;99.90
59651;DHT22;45954;49.768;8.636;2023-04-16T00:59:21;10.40;99.90
59651;DHT22;45954;49.768;8.636;2023-04-16T01:01:47;10.40;99.90
59651;DHT22;45954;49.768;8.636;2023-04-16T01:04:13;10.20;99.90
59651;DHT22;45954;49.768;8.636;2023-04-16T01:06:40;10.10;99.90
59651;DHT22;45954;49.768;8.636;2023-04-16T01:09:06;10.20;99.90
59651;DHT22;45954;49.768;8.636;2023-04-16T01:11:32;10.20;99.90
59651;DHT22;45954;49.768;8.636;2023-04-16T01:13:58;10.20;99.90
59651;DHT22;45954;49.768;8.636;2023-04-16T01:16:24;10.20;99.90
59651;DHT22;45954;49.768;8.636;2023-04-16T01:18:51;10.20;99.90
59651;DHT22;45954;49.768;8.636;2023-04-16T01:21:17;10.30;99.90
59651;DHT22;45954;49.768;8.636;2023-04-16T01:23:43;10.30;99.90
59651;DHT22;45954;49.768;8.636;2023-04-16T01:26:08;10.40;99.90
59651;DHT22;45954;49.768;8.636;2023-04-16T01:28:34;10.50;99.90
59651;DHT22;45954;49.768;8.636;2023-04-16T01:31:00;10.50;99.90
59651;DHT22;45954;49.768;8.636;2023-04-16T01:33:26;10.40;99.90
59651;DHT22;45954;49.768;8.636;2023-04-16T01:35:52;10.40;99.90
59651;DHT22;45954;49.768;8.636;2023-04-16T01:38:18;10.40;99.90
59651;DHT22;45954;49.768;8.636;2023-04-16T01:40:44;10.40;99.90
59651;DHT22;45954;49.768;8.636;2023-04-16T01:43:10;10.40;99.90
59651;DHT22;45954;49.768;8.636;2023-04-16T01:45:35;10.40;99.90
59651;DHT22;45954;49.768;8.636;2023-04-16T01:48:02;10.40;99.90
59651;DHT22;45954;49.768;8.636;2023-04-16T01:50:29;10.40;99.90
59651;DHT22;45954;49.768;8.636;2023-04-16T01:52:55;10.30;99.90
59651;DHT22;45954;49.768;8.636;2023-04-16T01:55:21;10.30;99.90
59651;DHT22;45954;49.768;8.636;2023-04-16T01:57:47;10.30;99.90
59651;DHT22;45954;49.768;8.636;2023-04-16T02:00:13;10.40;99.90
59651;DHT22;45954;49.768;8.636;2023-04-16T02:02:39;10.40;99.90
59651;DHT22;45954;49.768;8.636;2023-04-16T02:05:05;10.40;99.90
59651;DHT22;45954;49.768;8.636;2023-04-16T02:07:31;10.40;99.90
59651;DHT22;45954;49.768;8.636;2023-04-16T02:09:57;10.40;99.90
59651;DHT22;45954;49.768;8.636;2023-04-16T02:12:23;10.40;99.90
59651;DHT22;45954;49.768;8.636;2023-04-16T02:14:49;10.40;99.90
59651;DHT22;45954;49.768;8.636;2023-04-16T02:17:14;10.40;99.90
59651;DHT22;45954;49.768;8.636;2023-04-16T02:19:41;10.40;99.90
59651;DHT22;45954;49.768;8.636;2023-04-16T02:22:07;10.40;99.90
59651;DHT22;45954;49.768;8.636;2023-04-16T02:24:33;10.50;99.90
59651;DHT22;45954;49.768;8.636;2023-04-16T02:26:59;10.50;99.90
59651;DHT22;45954;49.768;8.636;2023-04-16T02:29:26;10.50;99.90
59651;DHT22;45954;49.768;8.636;2023-04-16T02:31:51;10.50;99.90
59651;DHT22;45954;49.768;8.636;2023-04-16T02:34:17;10.40;99.90
59651;DHT22;45954;49.768;8.636;2023-04-16T02:36:43;10.30;99.90
59651;DHT22;45954;49.768;8.636;2023-04-16T02:39:09;10.30;99.90
59651;DHT22;45954;49.768;8.636;2023-04-16T02:41:35;10.20;99.90
59651;DHT22;45954;49.768;8.636;2023-04-16T02:44:01;10.10;99.90
59651;DHT22;45954;49.768;8.636;2023-04-16T02:46:27;10.10;99.90
59651;DHT22;45954;49.768;8.636;2023-04-16T02:48:53;10.30;99.90
59651;DHT22;45954;49.768;8.636;2023-04-16T02:51:19;10.20;99.90
59651;DHT22;45954;49.768;8.636;2023-04-16T02:53:45;10.30;99.90
59651;DHT22;45954;49.768;8.636;2023-04-16T02:56:11;10.10;99.90
59651;DHT22;45954;49.768;8.636;2023-04-16T02:58:37;10.20;99.90
59651;DHT22;45954;49.768;8.636;2023-04-16T03:01:03;10.30;99.90
59651;DHT22;45954;49.768;8.636;2023-04-16T03:03:29;10.20;99.90
59651;DHT22;45954;49.768;8.636;2023-04-16T03:05:55;10.30;99.90
59651;DHT22;45954;49.768;8.636;2023-04-16T03:08:21;10.30;99.90
59651;DHT22;45954;49.768;8.636;2023-04-16T03:10:47;10.30;99.90
59651;DHT22;45954;49.768;8.636;2023-04-16T03:13:13;10.30;99.90
59651;DHT22;45954;49.768;8.636;2023-04-16T03:15:39;10.30;99.90
59651;DHT22;45954;49.768;8.636;2023-04-16T03:18:05;10.30;99.90
59651;DHT22;45954;49.768;8.636;2023-04-16T03:20:31;10.30;99.90
59651;DHT22;45954;49.768;8.636;2023-04-16T03:22:56;10.20;99.90
59651;DHT22;45954;49.768;8.636;2023-04-16T03:25:22;10.20;99.90
59651;DHT22;45954;49.768;8.636;2023-04-16T03:27:48;10.30;99.90
59651;DHT22;45954;49.768;8.636;2023-04-16T03:30:15;10.30;99.90
59651;DHT22;45954;49.768;8.636;2023-04-16T03:32:41;10.20;99.90
59651;DHT22;45954;49.768;8.636;2023-04-16T03:35:08;10.20;99.90
59651;DHT22;45954;49.768;8.636;2023-04-16T03:37:34;10.20;99.90
59651;DHT22;45954;49.768;8.636;2023-04-16T03:40:01;10.00;99.90
59651;DHT22;45954;49.768;8.636;2023-04-16T03:42:26;9.80;99.90
59651;DHT22;45954;49.768;8.636;2023-04-16T03:44:52;9.90;99.90
59651;DHT22;45954;49.768;8.636;2023-04-16T03:47:19;10.00;99.90
59651;DHT22;45954;49.768;8.636;2023-04-16T03:49:45;10.10;99.90
59651;DHT22;45954;49.768;8.636;2023-04-16T03:52:11;10.20;99.90
59651;DHT22;45954;49.768;8.636;2023-04-16T03:54:37;10.30;99.90
59651;DHT22;45954;49.768;8.636;2023-04-16T03:57:02;10.30;99.90
59651;DHT22;45954;49.768;8.636;2023-04-16T03:59:28;10.30;99.90
59651;DHT22;45954;49.768;8.636;2023-04-16T04:01:54;10.30;99.90
59651;DHT22;45954;49.768;8.636;2023-04-16T04:04:20;10.30;99.90
59651;DHT22;45954;49.768;8.636;2023-04-16T04:06:46;10.30;99.90
59651;DHT22;45954;49.768;8.636;2023-04-16T04:09:12;10.30;99.90
59651;DHT22;45954;49.768;8.636;2023-04-16T04:11:39;10.30;99.90
59651;DHT22;45954;49.768;8.636;2023-04-16T04:14:05;10.30;99.90
59651;DHT22;45954;49.768;8.636;2023-04-16T04:16:31;10.40;99.90
59651;DHT22;45954;49.768;8.636;2023-04-16T04:18:57;10.30;99.90
59651;DHT22;45954;49.768;8.636;2023-04-16T04:21:25;10.20;99.90
59651;DHT22;45954;49.768;8.636;2023-04-16T04:23:53;10.20;99.90
59651;DHT22;45954;49.768;8.636;2023-04-16T04:26:18;10.30;99.90
59651;DHT22;45954;49.768;8.636;2023-04-16T04:28:46;10.30;99.90
59651;DHT22;45954;49.768;8.636;2023-04-16T04:31:13;10.30;99.90
59651;DHT22;45954;49.768;8.636;2023-04-16T04:33:39;10.30;99.90
59651;DHT22;45954;49.768;8.636;2023-04-16T04:36:05;10.30;99.90
59651;DHT22;45954;49.768;8.636;2023-04-16T04:38:31;10.20;99.90
59651;DHT22;45954;49.768;8.636;2023-04-16T04:40:57;9.80;99.90
59651;DHT22;45954;49.768;8.636;2023-04-16T04:43:24;9.70;99.90
59651;DHT22;45954;49.768;8.636;2023-04-16T04:45:50;9.80;99.90
59651;DHT22;45954;49.768;8.636;2023-04-16T04:48:16;9.90;99.90
59651;DHT22;45954;49.768;8.636;2023-04-16T04:50:43;10.00;99.90
59651;DHT22;45954;49.768;8.636;2023-04-16T04:53:10;10.00;99.90
59651;DHT22;45954;49.768;8.636;2023-04-16T04:55:39;10.00;99.90
59651;DHT22;45954;49.768;8.636;2023-04-16T04:58:06;10.20;99.90
59651;DHT22;45954;49.768;8.636;2023-04-16T05:00:33;10.10;99.90
59651;DHT22;45954;49.768;8.636;2023-04-16T05:03:03;10.10;99.90
59651;DHT22;45954;49.768;8.636;2023-04-16T05:05:30;10.10;99.90
59651;DHT22;45954;49.768;8.636;2023-04-16T05:07:56;10.20;99.90
59651;DHT22;45954;49.768;8.636;2023-04-16T05:10:22;10.20;99.90
59651;DHT22;45954;49.768;8.636;2023-04-16T05:12:48;10.30;99.90
59651;DHT22;45954;49.768;8.636;2023-04-16T05:15:15;10.30;99.90
59651;DHT22;45954;49.768;8.636;2023-04-16T05:17:41;10.30;99.90
59651;DHT22;45954;49.768;8.636;2023-04-16T05:20:07;10.30;99.90
59651;DHT22;45954;49.768;8.636;2023-04-16T05:22:34;10.30;99.90
59651;DHT22;45954;49.768;8.636;2023-04-16T05:25:00;10.30;99.90
59651;DHT22;45954;49.768;8.636;2023-04-16T05:27:26;10.40;99.90
59651;DHT22;45954;49.768;8.636;2023-04-16T05:29:52;10.30;99.90
59651;DHT22;45954;49.768;8.636;2023-04-16T05:32:18;10.30;99.90
59651;DHT22;45954;49.768;8.636;2023-04-16T05:34:43;10.30;99.90
59651;DHT22;45954;49.768;8.636;2023-04-16T05:37:09;10.30;99.90
59651;DHT22;45954;49.768;8.636;2023-04-16T05:39:35;10.30;99.90
59651;DHT22;45954;49.768;8.636;2023-04-16T05:42:01;10.20;99.90
59651;DHT22;45954;49.768;8.636;2023-04-16T05:44:27;10.20;99.90
59651;DHT22;45954;49.768;8.636;2023-04-16T05:46:53;10.00;99.90
59651;DHT22;45954;49.768;8.636;2023-04-16T05:49:19;10.10;99.90
59651;DHT22;45954;49.768;8.636;2023-04-16T05:51:45;10.20;99.90
59651;DHT22;45954;49.768;8.636;2023-04-16T05:54:10;10.10;99.90
59651;DHT22;45954;49.768;8.636;2023-04-16T05:56:36;10.10;99.90
59651;DHT22;45954;49.768;8.636;2023-04-16T05:59:02;10.20;99.90
59651;DHT22;45954;49.768;8.636;2023-04-16T06:01:28;10.30;99.90
59651;DHT22;45954;49.768;8.636;2023-04-16T06:03:54;10.20;99.90
59651;DHT22;45954;49.768;8.636;2023-04-16T06:06:20;10.20;99.90
59651;DHT22;45954;49.768;8.636;2023-04-16T06:08:46;10.30;99.90
59651;DHT22;45954;49.768;8.636;2023-04-16T06:11:12;10.40;99.90
59651;DHT22;45954;49.768;8.636;2023-04-16T06:13:38;10.40;99.90
59651;DHT22;45954;49.768;8.636;2023-04-16T06:16:04;10.40;99.90
59651;DHT22;45954;49.768;8.636;2023-04-16T06:18:30;10.40;99.90
59651;DHT22;45954;49.768;8.636;2023-04-16T06:20:56;10.30;99.90
59651;DHT22;45954;49.768;8.636;2023-04-16T06:23:24;10.40;99.90
59651;DHT22;45954;49.768;8.636;2023-04-16T06:25:50;10.30;99.90
59651;DHT22;45954;49.768;8.636;2023-04-16T06:28:16;10.30;99.90
59651;DHT22;45954;49.768;8.636;2023-04-16T06:30:42;10.40;99.90
59651;DHT22;45954;49.768;8.636;2023-04-16T06:33:08;10.40;99.90
59651;DHT22;45954;49.768;8.636;2023-04-16T06:35:34;10.30;99.90
59651;DHT22;45954;49.768;8.636;2023-04-16T06:38:00;10.20;99.90
59651;DHT22;45954;49.768;8.636;2023-04-16T06:40:26;10.00;99.90
59651;DHT22;45954;49.768;8.636;2023-04-16T06:42:52;9.90;99.90
59651;DHT22;45954;49.768;8.636;2023-04-16T06:45:18;9.90;99.90
59651;DHT22;45954;49.768;8.636;2023-04-16T06:47:44;9.90;99.90
59651;DHT22;45954;49.768;8.636;2023-04-16T06:50:10;10.00;99.90
59651;DHT22;45954;49.768;8.636;2023-04-16T06:52:36;10.10;99.90
59651;DHT22;45954;49.768;8.636;2023-04-16T06:55:02;10.10;99.90
59651;DHT22;45954;49.768;8.636;2023-04-16T06:57:28;10.20;99.90
59651;DHT22;45954;49.768;8.636;2023-04-16T06:59:54;10.30;99.90
59651;DHT22;45954;49.768;8.636;2023-04-16T07:02:20;10.30;99.90
59651;DHT22;45954;49.768;8.636;2023-04-16T07:04:46;10.40;99.90
59651;DHT22;45954;49.768;8.636;2023-04-16T07:07:11;10.20;99.90
59651;DHT22;45954;49.768;8.636;2023-04-16T07:09:37;10.20;99.90
59651;DHT22;45954;49.768;8.636;2023-04-16T07:12:03;10.10;99.90
59651;DHT22;45954;49.768;8.636;2023-04-16T07:14:29;10.10;99.90
59651;DHT22;45954;49.768;8.636;2023-04-16T07:16:55;10.10;99.90
59651;DHT22;45954;49.768;8.636;2023-04-16T07:19:21;10.00;99.90
59651;DHT22;45954;49.768;8.636;2023-04-16T07:21:47;10.00;99.90
59651;DHT22;45954;49.768;8.636;2023-04-16T07:24:13;10.00;99.90
59651;DHT22;45954;49.768;8.636;2023-04-16T07:26:39;10.10;99.90
59651;DHT22;45954;49.768;8.636;2023-04-16T07:29:05;10.20;99.90
59651;DHT22;45954;49.768;8.636;2023-04-16T07:31:30;10.30;99.90
59651;DHT22;45954;49.768;8.636;2023-04-16T07:33:57;10.20;99.90
59651;DHT22;45954;49.768;8.636;2023-04-16T07:36:23;10.20;99.90
59651;DHT22;45954;49.768;8.636;2023-04-16T07:38:49;10.30;99.90
59651;DHT22;45954;49.768;8.636;2023-04-16T07:41:15;10.00;99.90
59651;DHT22;45954;49.768;8.636;2023-04-16T07:43:41;9.70;99.90
59651;DHT22;45954;49.768;8.636;2023-04-16T07:46:06;9.60;99.90
59651;DHT22;45954;49.768;8.636;2023-04-16T07:48:32;9.60;99.90
59651;DHT22;45954;49.768;8.636;2023-04-16T07:50:58;9.70;99.90
59651;DHT22;45954;49.768;8.636;2023-04-16T07:53:24;9.60;99.90
59651;DHT22;45954;49.768;8.636;2023-04-16T07:55:50;9.50;99.90
59651;DHT22;45954;49.768;8.636;2023-04-16T07:58:16;9.60;99.90
59651;DHT22;45954;49.768;8.636;2023-04-16T08:00:42;9.60;99.90
59651;DHT22;45954;49.768;8.636;2023-04-16T08:03:08;9.70;99.90
59651;DHT22;45954;49.768;8.636;2023-04-16T08:05:34;9.80;99.90
59651;DHT22;45954;49.768;8.636;2023-04-16T08:07:59;9.80;99.90
59651;DHT22;45954;49.768;8.636;2023-04-16T08:10:25;9.90;99.90
59651;DHT22;45954;49.768;8.636;2023-04-16T08:12:52;9.80;99.90
59651;DHT22;45954;49.768;8.636;2023-04-16T08:15:19;9.80;99.90
59651;DHT22;45954;49.768;8.636;2023-04-16T08:17:44;9.80;99.90
59651;DHT22;45954;49.768;8.636;2023-04-16T08:20:10;9.70;99.90
59651;DHT22;45954;49.768;8.636;2023-04-16T08:22:36;9.70;99.90
59651;DHT22;45954;49.768;8.636;2023-04-16T08:25:03;9.70;99.90
59651;DHT22;45954;49.768;8.636;2023-04-16T08:27:29;9.60;99.90
59651;DHT22;45954;49.768;8.636;2023-04-16T08:29:55;9.60;99.90
59651;DHT22;45954;49.768;8.636;2023-04-16T08:32:21;9.40;99.90
59651;DHT22;45954;49.768;8.636;2023-04-16T08:34:47;9.50;99.90
59651;DHT22;45954;49.768;8.636;2023-04-16T08:37:13;9.60;99.90
59651;DHT22;45954;49.768;8.636;2023-04-16T08:39:39;9.70;99.90
59651;DHT22;45954;49.768;8.636;2023-04-16T08:42:13;9.80;99.90
59651;DHT22;45954;49.768;8.636;2023-04-16T08:45:07;9.80;99.90
59651;DHT22;45954;49.768;8.636;2023-04-16T08:47:40;9.70;99.90
59651;DHT22;45954;49.768;8.636;2023-04-16T08:50:08;9.50;99.90
59651;DHT22;45954;49.768;8.636;2023-04-16T08:52:44;9.60;99.90
59651;DHT22;45954;49.768;8.636;2023-04-16T08:55:15;9.70;99.90
59651;DHT22;45954;49.768;8.636;2023-04-16T08:57:47;9.70;99.90
59651;DHT22;45954;49.768;8.636;2023-04-16T09:00:19;9.70;99.90
59651;DHT22;45954;49.768;8.636;2023-04-16T09:02:46;9.60;99.90
59651;DHT22;45954;49.768;8.636;2023-04-16T09:05:15;9.60;99.90
59651;DHT22;45954;49.768;8.636;2023-04-16T09:07:47;9.60;99.90
59651;DHT22;45954;49.768;8.636;2023-04-16T09:10:14;9.60;99.90
59651;DHT22;45954;49.768;8.636;2023-04-16T09:12:41;9.70;99.90
59651;DHT22;45954;49.768;8.636;2023-04-16T09:15:12;9.80;99.90
59651;DHT22;45954;49.768;8.636;2023-04-16T09:17:39;9.90;99.90
59651;DHT22;45954;49.768;8.636;2023-04-16T09:20:06;10.10;99.90
59651;DHT22;45954;49.768;8.636;2023-04-16T09:22:34;10.10;99.90
59651;DHT22;45954;49.768;8.636;2023-04-16T09:25:00;10.20;99.90
59651;DHT22;45954;49.768;8.636;2023-04-16T09:27:26;10.20;99.90
59651;DHT22;45954;49.768;8.636;2023-04-16T09:29:52;10.20;99.90
59651;DHT22;45954;49.768;8.636;2023-04-16T09:32:24;10.40;99.90
59651;DHT22;45954;49.768;8.636;2023-04-16T09:34:59;10.50;99.90
59651;DHT22;45954;49.768;8.636;2023-04-16T09:37:27;10.60;99.90
59651;DHT22;45954;49.768;8.636;2023-04-16T09:40:00;10.60;99.90
59651;DHT22;45954;49.768;8.636;2023-04-16T09:42:32;10.70;99.90
59651;DHT22;45954;49.768;8.636;2023-04-16T09:45:00;10.70;99.90
59651;DHT22;45954;49.768;8.636;2023-04-16T09:47:41;10.50;99.90
59651;DHT22;45954;49.768;8.636;2023-04-16T09:50:09;10.60;99.90
59651;DHT22;45954;49.768;8.636;2023-04-16T09:52:42;10.60;99.90
59651;DHT22;45954;49.768;8.636;2023-04-16T09:55:10;10.70;99.90
59651;DHT22;45954;49.768;8.636;2023-04-16T09:57:37;10.70;99.90
59651;DHT22;45954;49.768;8.636;2023-04-16T10:00:05;10.80;99.90
59651;DHT22;45954;49.768;8.636;2023-04-16T10:02:34;10.80;99.90
59651;DHT22;45954;49.768;8.636;2023-04-16T10:05:03;10.70;99.90
59651;DHT22;45954;49.768;8.636;2023-04-16T10:07:33;10.80;99.90
59651;DHT22;45954;49.768;8.636;2023-04-16T10:10:02;10.90;99.90
59651;DHT22;45954;49.768;8.636;2023-04-16T10:12:29;10.90;99.90
59651;DHT22;45954;49.768;8.636;2023-04-16T10:14:57;10.90;99.90
59651;DHT22;45954;49.768;8.636;2023-04-16T10:17:23;11.00;99.90
59651;DHT22;45954;49.768;8.636;2023-04-16T10:19:50;11.00;99.90
59651;DHT22;45954;49.768;8.636;2023-04-16T10:22:16;11.10;99.90
59651;DHT22;45954;49.768;8.636;2023-04-16T10:24:43;11.00;99.90
59651;DHT22;45954;49.768;8.636;2023-04-16T10:27:09;11.10;99.90
59651;DHT22;45954;49.768;8.636;2023-04-16T10:29:36;11.10;99.90
59651;DHT22;45954;49.768;8.636;2023-04-16T10:32:02;11.10;99.90
59651;DHT22;45954;49.768;8.636;2023-04-16T10:34:31;11.20;99.90
59651;DHT22;45954;49.768;8.636;2023-04-16T10:36:56;11.20;99.90
59651;DHT22;45954;49.768;8.636;2023-04-16T10:39:24;11.20;99.90
59651;DHT22;45954;49.768;8.636;2023-04-16T10:42:08;11.30;99.90
59651;DHT22;45954;49.768;8.636;2023-04-16T10:44:36;11.30;99.90
59651;DHT22;45954;49.768;8.636;2023-04-16T10:47:09;11.30;99.90
59651;DHT22;45954;49.768;8.636;2023-04-16T10:49:37;11.30;99.90
59651;DHT22;45954;49.768;8.636;2023-04-16T10:52:12;11.30;99.90
59651;DHT22;45954;49.768;8.636;2023-04-16T10:54:45;11.40;99.90
59651;DHT22;45954;49.768;8.636;2023-04-16T10:57:18;11.30;99.90
59651;DHT22;45954;49.768;8.636;2023-04-16T10:59:45;11.40;99.90
59651;DHT22;45954;49.768;8.636;2023-04-16T11:02:15;11.40;99.90
59651;DHT22;45954;49.768;8.636;2023-04-16T11:04:43;11.40;99.90
59651;DHT22;45954;49.768;8.636;2023-04-16T11:09:55;11.50;99.90
59651;DHT22;45954;49.768;8.636;2023-04-16T11:15:11;11.50;99.90
59651;DHT22;45954;49.768;8.636;2023-04-16T11:17:40;11.50;99.90
59651;DHT22;45954;49.768;8.636;2023-04-16T11:22:44;11.50;99.90
59651;DHT22;45954;49.768;8.636;2023-04-16T11:25:11;11.60;99.90
59651;DHT22;45954;49.768;8.636;2023-04-16T11:27:37;11.60;99.90
59651;DHT22;45954;49.768;8.636;2023-04-16T11:30:06;11.60;99.90
59651;DHT22;45954;49.768;8.636;2023-04-16T11:32:37;11.70;99.90
59651;DHT22;45954;49.768;8.636;2023-04-16T11:35:16;11.70;99.90
59651;DHT22;45954;49.768;8.636;2023-04-16T11:37:43;11.70;99.90
59651;DHT22;45954;49.768;8.636;2023-04-16T11:40:09;11.70;99.90
59651;DHT22;45954;49.768;8.636;2023-04-16T11:42:37;11.70;99.90
59651;DHT22;45954;49.768;8.636;2023-04-16T11:45:10;11.80;99.90
59651;DHT22;45954;49.768;8.636;2023-04-16T11:47:48;11.70;99.90
59651;DHT22;45954;49.768;8.636;2023-04-16T11:50:27;11.80;99.90
59651;DHT22;45954;49.768;8.636;2023-04-16T11:52:55;11.80;99.90
59651;DHT22;45954;49.768;8.636;2023-04-16T11:55:22;11.70;99.90
59651;DHT22;45954;49.768;8.636;2023-04-16T11:57:49;11.60;99.90
59651;DHT22;45954;49.768;8.636;2023-04-16T12:00:16;11.60;99.90
59651;DHT22;45954;49.768;8.636;2023-04-16T12:02:49;11.70;99.90
59651;DHT22;45954;49.768;8.636;2023-04-16T12:05:37;11.70;99.90
59651;DHT22;45954;49.768;8.636;2023-04-16T12:08:06;11.60;99.90
59651;DHT22;45954;49.768;8.636;2023-04-16T12:10:35;11.50;99.90
59651;DHT22;45954;49.768;8.636;2023-04-16T12:13:16;11.60;99.90
59651;DHT22;45954;49.768;8.636;2023-04-16T12:15:54;11.70;99.90
59651;DHT22;45954;49.768;8.636;2023-04-16T12:18:25;11.80;99.90
59651;DHT22;45954;49.768;8.636;2023-04-16T12:20:53;11.80;99.90
59651;DHT22;45954;49.768;8.636;2023-04-16T12:23:26;11.90;99.90
59651;DHT22;45954;49.768;8.636;2023-04-16T12:25:54;11.90;99.90
59651;DHT22;45954;49.768;8.636;2023-04-16T12:28:35;11.90;99.90
59651;DHT22;45954;49.768;8.636;2023-04-16T12:31:03;11.90;99.90
59651;DHT22;45954;49.768;8.636;2023-04-16T12:33:30;11.80;99.90
59651;DHT22;45954;49.768;8.636;2023-04-16T12:35:56;11.90;99.90
59651;DHT22;45954;49.768;8.636;2023-04-16T12:38:22;11.90;99.90
59651;DHT22;45954;49.768;8.636;2023-04-16T12:40:50;11.90;99.90
59651;DHT22;45954;49.768;8.636;2023-04-16T12:43:16;12.00;99.90
59651;DHT22;45954;49.768;8.636;2023-04-16T12:45:42;12.10;99.90
59651;DHT22;45954;49.768;8.636;2023-04-16T12:48:08;12.10;99.90
59651;DHT22;45954;49.768;8.636;2023-04-16T12:50:34;12.00;99.90
59651;DHT22;45954;49.768;8.636;2023-04-16T12:53:00;11.80;99.90
59651;DHT22;45954;49.768;8.636;2023-04-16T12:55:26;11.70;99.90
59651;DHT22;45954;49.768;8.636;2023-04-16T12:57:53;11.70;99.90
59651;DHT22;45954;49.768;8.636;2023-04-16T13:00:19;11.70;99.90
59651;DHT22;45954;49.768;8.636;2023-04-16T13:02:45;11.70;99.90
59651;DHT22;45954;49.768;8.636;2023-04-16T13:05:11;11.60;99.90
59651;DHT22;45954;49.768;8.636;2023-04-16T13:07:39;11.60;99.90
59651;DHT22;45954;49.768;8.636;2023-04-16T13:10:06;11.70;99.90
59651;DHT22;45954;49.768;8.636;2023-04-16T13:12:32;11.60;99.90
59651;DHT22;45954;49.768;8.636;2023-04-16T13:14:58;11.60;99.90
59651;DHT22;45954;49.768;8.636;2023-04-16T13:17:24;11.70;99.90
59651;DHT22;45954;49.768;8.636;2023-04-16T13:19:50;11.70;99.90
59651;DHT22;45954;49.768;8.636;2023-04-16T13:22:16;11.70;99.90
59651;DHT22;45954;49.768;8.636;2023-04-16T13:24:42;11.80;99.90
59651;DHT22;45954;49.768;8.636;2023-04-16T13:27:08;11.90;99.90
59651;DHT22;45954;49.768;8.636;2023-04-16T13:29:34;11.80;99.90
59651;DHT22;45954;49.768;8.636;2023-04-16T13:32:03;11.80;99.90
59651;DHT22;45954;49.768;8.636;2023-04-16T13:34:29;11.90;99.90
59651;DHT22;45954;49.768;8.636;2023-04-16T13:36:55;11.80;99.90
59651;DHT22;45954;49.768;8.636;2023-04-16T13:39:21;11.70;99.90
59651;DHT22;45954;49.768;8.636;2023-04-16T13:41:46;11.70;99.90
59651;DHT22;45954;49.768;8.636;2023-04-16T13:44:14;11.70;99.90
59651;DHT22;45954;49.768;8.636;2023-04-16T13:46:40;11.70;99.90
59651;DHT22;45954;49.768;8.636;2023-04-16T13:49:08;11.70;99.90
59651;DHT22;45954;49.768;8.636;2023-04-16T13:51:33;11.70;99.90
59651;DHT22;45954;49.768;8.636;2023-04-16T13:53:59;11.80;99.90
59651;DHT22;45954;49.768;8.636;2023-04-16T13:56:25;12.00;99.90
59651;DHT22;45954;49.768;8.636;2023-04-16T13:58:51;12.10;99.90
59651;DHT22;45954;49.768;8.636;2023-04-16T14:01:17;12.20;99.90
59651;DHT22;45954;49.768;8.636;2023-04-16T14:03:43;12.20;99.90
59651;DHT22;45954;49.768;8.636;2023-04-16T14:06:09;12.20;99.90
59651;DHT22;45954;49.768;8.636;2023-04-16T14:08:35;12.10;99.90
59651;DHT22;45954;49.768;8.636;2023-04-16T14:11:02;12.20;99.90
59651;DHT22;45954;49.768;8.636;2023-04-16T14:13:30;12.30;99.90
59651;DHT22;45954;49.768;8.636;2023-04-16T14:15:56;12.30;99.90
59651;DHT22;45954;49.768;8.636;2023-04-16T14:18:22;12.30;99.90
59651;DHT22;45954;49.768;8.636;2023-04-16T14:20:48;12.30;99.90
59651;DHT22;45954;49.768;8.636;2023-04-16T14:23:14;12.20;99.90
59651;DHT22;45954;49.768;8.636;2023-04-16T14:25:39;12.20;99.90
59651;DHT22;45954;49.768;8.636;2023-04-16T14:28:05;12.20;99.90
59651;DHT22;45954;49.768;8.636;2023-04-16T14:30:31;12.20;99.90
59651;DHT22;45954;49.768;8.636;2023-04-16T14:32:57;12.30;99.90
59651;DHT22;45954;49.768;8.636;2023-04-16T14:35:23;12.20;99.90
59651;DHT22;45954;49.768;8.636;2023-04-16T14:37:49;12.10;99.90
59651;DHT22;45954;49.768;8.636;2023-04-16T14:40:15;12.10;99.90
59651;DHT22;45954;49.768;8.636;2023-04-16T14:42:41;12.20;99.90
59651;DHT22;45954;49.768;8.636;2023-04-16T14:45:07;12.40;99.90
59651;DHT22;45954;49.768;8.636;2023-04-16T14:47:34;12.20;99.90
59651;DHT22;45954;49.768;8.636;2023-04-16T14:50:02;12.10;99.90
59651;DHT22;45954;49.768;8.636;2023-04-16T14:52:32;12.10;99.90
59651;DHT22;45954;49.768;8.636;2023-04-16T14:54:58;12.30;99.90
59651;DHT22;45954;49.768;8.636;2023-04-16T14:57:24;12.40;99.90
59651;DHT22;45954;49.768;8.636;2023-04-16T14:59:51;12.50;99.90
59651;DHT22;45954;49.768;8.636;2023-04-16T15:02:17;12.50;99.90
59651;DHT22;45954;49.768;8.636;2023-04-16T15:04:42;12.40;99.90
59651;DHT22;45954;49.768;8.636;2023-04-16T15:07:09;12.40;99.90
59651;DHT22;45954;49.768;8.636;2023-04-16T15:09:35;12.40;99.90
59651;DHT22;45954;49.768;8.636;2023-04-16T15:12:01;12.40;99.90
59651;DHT22;45954;49.768;8.636;2023-04-16T15:14:27;12.40;99.90
59651;DHT22;45954;49.768;8.636;2023-04-16T15:16:53;12.50;99.90
59651;DHT22;45954;49.768;8.636;2023-04-16T15:19:19;12.60;99.90
59651;DHT22;45954;49.768;8.636;2023-04-16T15:21:45;12.60;99.90
59651;DHT22;45954;49.768;8.636;2023-04-16T15:24:11;12.60;99.90
59651;DHT22;45954;49.768;8.636;2023-04-16T15:26:37;12.60;99.90
59651;DHT22;45954;49.768;8.636;2023-04-16T15:29:03;12.60;99.90
59651;DHT22;45954;49.768;8.636;2023-04-16T15:31:29;12.50;99.90
59651;DHT22;45954;49.768;8.636;2023-04-16T15:33:55;12.50;99.90
59651;DHT22;45954;49.768;8.636;2023-04-16T15:36:20;12.50;99.90
59651;DHT22;45954;49.768;8.636;2023-04-16T15:38:47;12.60;99.90